Terminal Aerodrome Forecast
Issued by NWS Newport/Morehead City, NC

Home | Current Version | Previous Version | Graphics & Text | Print | Product List | Glossary On
Versions: 1 2 3 4 5 6 7 8 9 10 11 12 13 14 15 16 17 18 19
219
FTUS42 KMHX 161139
TAFEWN
TAF
KEWN 161139Z 1612/1712 05005KT P6SM -DZ OVC025
     FM161400 06006KT P6SM OVC020
     FM162300 VRB03KT P6SM SCT020 BKN040=

USA.gov is the U.S. government's official web portal to all federal, state and local government web resources and services.